Terminal Aerodrome Forecast
Issued by NWS

Current Version | Previous Version | Text Only | Print | Product List | Glossary On
Versions: 1 2 3 4 5 6 7 8 9 10 11 12 13 14 15 16 17 18 19 20 21
000
FTUS44 KHGX 281219 AAA
TAFUTS
TAF AMD
KUTS 281219Z 2812/2912 15005KT 5SM BR BKN022
     FM281400 18012KT P6SM BKN025
      TEMPO 2815/2818 SCT035
     FM281800 17015G23KT P6SM SCT040
     FM290300 15014KT P6SM SCT030
     FM290600 16014KT P6SM SCT012 BKN025=

USA.gov is the U.S. government's official web portal to all federal, state and local government web resources and services.